Time;durP1;ratioP1;P1;durP2;ratioP2;P2;SDS_P1;SDS_P2;PMS_P1;PMS_P2;Temp;Humidity;BMP_temperature;BMP_pressure;BME280_temperature;BME280_humidity;BME280_pressure;Samples;Min_cycle;Max_cycle;Signal;HPM_P1;HPM_P2
2023/06/24 00:01:33;;;;;;;0.00;0.00;;;17.50;68.70;;;;;;5053471;28;20191;-55
2023/06/24 00:04:06;;;;;;;0.03;0.03;;;17.50;68.80;;;;;;5052667;28;20191;-56
2023/06/24 00:06:37;;;;;;;0.10;0.10;;;17.50;68.90;;;;;;5053061;28;20249;-52
2023/06/24 00:09:07;;;;;;;0.10;0.10;;;17.60;68.90;;;;;;5054137;28;20215;-54
2023/06/24 00:11:38;;;;;;;0.10;0.10;;;17.60;68.90;;;;;;5053225;28;20600;-54
2023/06/24 00:14:09;;;;;;;0.10;0.10;;;17.60;68.90;;;;;;5053587;28;20199;-53
2023/06/24 00:16:41;;;;;;;0.10;0.10;;;17.60;68.90;;;;;;5053460;28;20207;-56
2023/06/24 00:19:14;;;;;;;0.03;0.03;;;17.60;68.80;;;;;;5052905;28;20298;-55
2023/06/24 00:21:44;;;;;;;0.10;0.10;;;17.60;68.80;;;;;;5053677;28;20651;-56
2023/06/24 00:24:15;;;;;;;0.10;0.10;;;17.60;68.80;;;;;;5055700;28;20203;-55
2023/06/24 00:26:45;;;;;;;0.10;0.10;;;17.60;68.80;;;;;;5052586;28;20536;-56
2023/06/24 00:29:16;;;;;;;0.10;0.10;;;17.60;68.90;;;;;;5052566;28;20214;-53
2023/06/24 00:31:46;;;;;;;0.10;0.10;;;17.60;68.70;;;;;;5053566;28;20257;-56
2023/06/24 00:34:19;;;;;;;0.05;0.05;;;17.70;68.80;;;;;;5052588;28;20192;-54
2023/06/24 00:36:50;;;;;;;0.05;0.05;;;17.60;68.70;;;;;;5052989;28;20751;-55
2023/06/24 00:39:20;;;;;;;0.00;0.00;;;17.60;68.80;;;;;;5052969;28;20687;-55
2023/06/24 00:41:51;;;;;;;0.10;0.10;;;17.60;68.80;;;;;;5052009;28;20249;-53
2023/06/24 00:44:22;;;;;;;0.10;0.10;;;17.70;68.90;;;;;;5053047;28;20605;-56
2023/06/24 00:46:52;;;;;;;0.00;0.00;;;17.60;68.90;;;;;;5052649;28;20257;-52
2023/06/24 00:49:25;;;;;;;0.00;0.00;;;17.70;68.90;;;;;;5052991;28;20219;-54
2023/06/24 00:51:55;;;;;;;0.00;0.00;;;17.70;68.90;;;;;;5052575;28;20198;-54
2023/06/24 00:54:30;;;;;;;0.00;0.00;;;17.70;68.90;;;;;;5057133;28;20191;-55
2023/06/24 00:57:02;;;;;;;0.10;0.10;;;17.70;68.90;;;;;;5052184;28;20551;-53
2023/06/24 00:59:33;;;;;;;0.00;0.00;;;17.70;68.80;;;;;;5052770;28;20219;-56
2023/06/24 01:02:04;;;;;;;0.10;0.10;;;17.70;68.80;;;;;;5051873;28;20188;-54
2023/06/24 01:04:37;;;;;;;0.10;0.10;;;17.70;68.80;;;;;;5052988;28;20218;-55
2023/06/24 01:07:08;;;;;;;0.10;0.10;;;17.70;68.80;;;;;;5052081;28;20249;-53
2023/06/24 01:09:39;;;;;;;0.10;0.10;;;17.70;68.80;;;;;;5052259;28;20199;-52
2023/06/24 01:12:10;;;;;;;0.00;0.00;;;17.70;68.80;;;;;;5043630;28;20192;-54
2023/06/24 01:14:41;;;;;;;0.08;0.08;;;17.70;68.80;;;;;;5052175;28;20265;-56
2023/06/24 01:17:17;;;;;;;0.10;0.10;;;17.70;68.80;;;;;;5052722;28;20196;-56
2023/06/24 01:20:10;;;;;;;0.10;0.10;;;17.70;68.90;;;;;;5060750;28;20194;-55
2023/06/24 01:23:22;;;;;;;0.00;0.00;;;17.70;68.90;;;;;;5071808;28;20206;-56
2023/06/24 01:26:17;;;;;;;0.00;0.00;;;17.70;69.00;;;;;;5052056;28;20223;-53
2023/06/24 01:29:12;;;;;;;0.10;0.10;;;17.80;69.00;;;;;;5050962;28;20719;-56
2023/06/24 01:31:50;;;;;;;0.10;0.10;;;17.80;68.90;;;;;;5052496;28;20199;-59
2023/06/24 01:34:28;;;;;;;0.10;0.10;;;17.80;69.00;;;;;;5052534;28;20655;-55
2023/06/24 01:37:11;;;;;;;0.10;0.10;;;17.80;69.10;;;;;;5051874;28;20199;-56
2023/06/24 01:39:45;;;;;;;0.10;0.10;;;17.80;69.10;;;;;;5052708;28;20201;-55
2023/06/24 01:42:19;;;;;;;0.10;0.10;;;17.80;69.10;;;;;;5052216;28;20195;-56
2023/06/24 01:44:51;;;;;;;0.00;0.00;;;17.80;69.20;;;;;;5052388;28;20268;-54
2023/06/24 01:47:28;;;;;;;0.00;0.00;;;17.80;69.10;;;;;;5052764;28;20207;-55
2023/06/24 01:50:02;;;;;;;0.10;0.10;;;17.80;69.20;;;;;;5052372;28;20203;-56
2023/06/24 01:52:34;;;;;;;0.08;0.08;;;17.80;69.20;;;;;;5052215;28;20195;-56
2023/06/24 01:55:06;;;;;;;0.00;0.00;;;17.80;69.10;;;;;;5071694;28;20198;-56
2023/06/24 01:57:39;;;;;;;0.08;0.08;;;17.80;69.10;;;;;;5071888;28;20264;-56
2023/06/24 02:00:11;;;;;;;0.00;0.00;;;17.90;69.20;;;;;;5060113;28;20265;-57
2023/06/24 02:02:44;;;;;;;0.05;0.05;;;17.90;69.20;;;;;;5052360;28;20520;-56
2023/06/24 02:05:16;;;;;;;0.10;0.10;;;17.90;69.20;;;;;;5051995;28;20285;-57
2023/06/24 02:07:47;;;;;;;0.10;0.10;;;17.90;69.20;;;;;;5052300;28;20219;-57
2023/06/24 02:10:19;;;;;;;0.00;0.00;;;17.90;69.30;;;;;;5051910;28;20268;-57
2023/06/24 02:12:51;;;;;;;0.03;0.03;;;18.00;69.30;;;;;;5051908;28;20199;-56
2023/06/24 02:15:23;;;;;;;0.10;0.10;;;17.90;69.20;;;;;;5052093;28;20203;-56
2023/06/24 02:17:58;;;;;;;0.10;0.10;;;17.90;69.10;;;;;;5051853;28;20215;-56
2023/06/24 02:20:30;;;;;;;0.10;0.10;;;17.90;69.20;;;;;;5051889;28;20199;-55
2023/06/24 02:23:01;;;;;;;0.10;0.10;;;18.00;69.20;;;;;;5055722;28;20203;-55
2023/06/24 02:25:32;;;;;;;0.10;0.10;;;18.00;69.10;;;;;;5061859;28;20223;-56
2023/06/24 02:28:03;;;;;;;0.10;0.10;;;17.90;69.10;;;;;;5051469;28;20223;-56
2023/06/24 02:30:35;;;;;;;0.05;0.05;;;17.90;69.10;;;;;;5051459;28;20195;-56
2023/06/24 02:33:07;;;;;;;0.10;0.10;;;17.90;69.10;;;;;;5051305;28;20199;-56
2023/06/24 02:35:38;;;;;;;0.10;0.10;;;18.00;69.10;;;;;;5051720;28;20208;-56
2023/06/24 02:38:08;;;;;;;0.10;0.10;;;18.00;69.10;;;;;;5051652;28;20269;-57
2023/06/24 02:40:39;;;;;;;0.10;0.10;;;18.00;69.10;;;;;;5051673;28;20191;-57
2023/06/24 02:43:09;;;;;;;0.10;0.10;;;18.00;69.10;;;;;;5051731;28;20196;-57
2023/06/24 02:45:40;;;;;;;0.10;0.10;;;18.00;69.10;;;;;;5051341;28;20215;-56
2023/06/24 02:48:15;;;;;;;0.00;0.00;;;18.00;69.20;;;;;;5051800;28;20215;-56
2023/06/24 02:50:46;;;;;;;0.08;0.08;;;18.00;69.20;;;;;;5051772;28;20608;-56
2023/06/24 02:53:17;;;;;;;0.00;0.00;;;18.00;69.20;;;;;;5057559;28;20253;-56
2023/06/24 02:55:48;;;;;;;0.03;0.03;;;18.00;69.10;;;;;;5071395;28;20670;-56
2023/06/24 02:58:19;;;;;;;0.10;0.10;;;18.00;69.10;;;;;;5071038;28;20256;-57
2023/06/24 03:00:50;;;;;;;0.08;0.08;;;18.10;69.10;;;;;;5071338;28;20199;-57
2023/06/24 03:03:23;;;;;;;0.00;0.00;;;18.10;69.10;;;;;;5055978;28;20318;-55
2023/06/24 03:05:53;;;;;;;0.03;0.03;;;18.00;69.00;;;;;;5053900;28;20261;-57
2023/06/24 03:08:24;;;;;;;0.00;0.00;;;18.00;69.00;;;;;;5055152;28;20223;-56
2023/06/24 03:10:57;;;;;;;0.10;0.10;;;18.00;69.00;;;;;;5055179;28;20615;-56
2023/06/24 03:13:28;;;;;;;0.05;0.05;;;18.10;69.00;;;;;;5055121;28;20191;-56
2023/06/24 03:15:59;;;;;;;0.10;0.10;;;18.00;69.00;;;;;;5054867;28;20195;-56
2023/06/24 03:18:31;;;;;;;0.00;0.00;;;18.00;69.00;;;;;;5054857;28;20223;-57
2023/06/24 03:21:02;;;;;;;0.00;0.00;;;18.00;68.90;;;;;;5054900;28;20257;-56
2023/06/24 03:23:32;;;;;;;0.10;0.10;;;18.00;69.00;;;;;;5062966;28;20194;-55
2023/06/24 03:26:03;;;;;;;0.10;0.10;;;18.00;68.90;;;;;;5074712;28;20268;-57
2023/06/24 03:28:33;;;;;;;0.10;0.10;;;18.10;69.00;;;;;;5074686;28;20255;-57
2023/06/24 03:31:04;;;;;;;0.00;0.00;;;18.10;69.00;;;;;;5074904;28;20195;-57
2023/06/24 03:33:36;;;;;;;0.10;0.10;;;18.10;69.00;;;;;;5061621;28;20261;-57
2023/06/24 03:36:07;;;;;;;0.10;0.10;;;18.10;69.00;;;;;;5054716;28;20196;-56
2023/06/24 03:38:38;;;;;;;0.08;0.08;;;18.10;69.00;;;;;;5054786;28;20745;-56
2023/06/24 03:41:08;;;;;;;0.10;0.10;;;18.10;69.00;;;;;;5054843;28;20599;-54
2023/06/24 03:43:39;;;;;;;0.10;0.10;;;18.10;68.90;;;;;;5054750;28;20245;-56
2023/06/24 03:46:09;;;;;;;0.03;0.03;;;18.10;68.90;;;;;;5054085;28;20223;-56
2023/06/24 03:48:42;;;;;;;0.10;0.10;;;18.10;68.90;;;;;;5054500;28;20230;-56
2023/06/24 03:51:12;;;;;;;0.10;0.10;;;18.10;68.90;;;;;;5054184;28;20196;-57
2023/06/24 03:53:43;;;;;;;0.05;0.05;;;18.10;68.80;;;;;;5060084;28;20656;-56
2023/06/24 03:56:14;;;;;;;0.10;0.10;;;18.10;68.80;;;;;;5054394;28;20203;-56
2023/06/24 03:58:44;;;;;;;0.00;0.00;;;18.10;68.80;;;;;;5054208;28;20289;-55
2023/06/24 04:01:15;;;;;;;0.10;0.10;;;18.10;68.80;;;;;;5054104;28;20260;-56
2023/06/24 04:03:47;;;;;;;0.00;0.00;;;18.10;68.70;;;;;;5054606;28;20196;-56
2023/06/24 04:06:18;;;;;;;0.00;0.00;;;18.10;68.70;;;;;;5054079;28;20356;-57
2023/06/24 04:08:48;;;;;;;0.10;0.10;;;18.10;68.80;;;;;;5054103;28;20598;-57
2023/06/24 04:11:19;;;;;;;0.10;0.10;;;18.10;68.80;;;;;;5053879;28;20257;-57
2023/06/24 04:13:50;;;;;;;0.10;0.10;;;18.10;68.80;;;;;;5053817;28;20196;-55
2023/06/24 04:16:20;;;;;;;0.10;0.10;;;18.10;68.80;;;;;;5052907;28;20215;-57
2023/06/24 04:18:53;;;;;;;0.10;0.10;;;18.10;68.70;;;;;;5054084;28;20285;-57
2023/06/24 04:21:23;;;;;;;0.00;0.00;;;18.10;68.70;;;;;;5053970;28;20392;-56
2023/06/24 04:23:54;;;;;;;0.10;0.10;;;18.10;68.60;;;;;;5065849;28;20248;-56
2023/06/24 04:26:24;;;;;;;0.10;0.10;;;18.10;68.60;;;;;;5073912;28;20222;-56
2023/06/24 04:28:55;;;;;;;0.03;0.03;;;18.10;68.80;;;;;;5073823;28;20264;-53
2023/06/24 04:31:25;;;;;;;0.10;0.10;;;18.10;68.90;;;;;;5073164;28;20248;-55
2023/06/24 04:33:58;;;;;;;0.08;0.08;;;18.10;68.90;;;;;;5068695;28;20192;-55
2023/06/24 04:36:28;;;;;;;0.00;0.00;;;18.10;68.90;;;;;;5053788;28;20203;-57
2023/06/24 04:38:59;;;;;;;0.03;0.03;;;18.10;68.80;;;;;;5053414;28;20261;-55
2023/06/24 04:41:29;;;;;;;0.10;0.10;;;18.10;68.80;;;;;;5034050;28;20412;-55
2023/06/24 04:44:00;;;;;;;0.03;0.03;;;18.10;68.80;;;;;;5033518;28;21104;-55
2023/06/24 04:46:32;;;;;;;0.05;0.05;;;18.10;68.80;;;;;;5032698;28;20746;-52
2023/06/24 04:49:04;;;;;;;0.10;0.10;;;18.10;68.80;;;;;;5034202;28;20216;-54
2023/06/24 04:51:35;;;;;;;0.10;0.10;;;18.10;68.70;;;;;;5033203;28;20199;-54
2023/06/24 04:54:06;;;;;;;0.10;0.10;;;18.10;68.70;;;;;;5059166;28;20203;-54
2023/06/24 04:56:36;;;;;;;0.10;0.10;;;18.10;68.70;;;;;;5073245;28;20230;-56
2023/06/24 04:59:07;;;;;;;0.00;0.00;;;18.10;68.70;;;;;;5056621;28;20302;-54
2023/06/24 05:01:37;;;;;;;0.17;0.17;;;18.10;68.60;;;;;;5052158;28;20647;-54
2023/06/24 05:04:10;;;;;;;0.10;0.10;;;18.10;68.70;;;;;;5052963;28;20682;-56
2023/06/24 05:06:40;;;;;;;0.10;0.10;;;18.10;68.60;;;;;;5053526;28;20293;-55
2023/06/24 05:09:13;;;;;;;0.20;0.20;;;18.10;68.60;;;;;;5053240;28;20277;-56
2023/06/24 05:11:44;;;;;;;0.10;0.10;;;18.10;68.50;;;;;;5053149;28;20291;-55
2023/06/24 05:14:14;;;;;;;0.08;0.08;;;18.10;68.50;;;;;;5053156;28;20199;-53
2023/06/24 05:16:45;;;;;;;0.00;0.00;;;18.10;68.50;;;;;;5052232;28;20253;-55
2023/06/24 05:19:18;;;;;;;0.00;0.00;;;18.10;68.40;;;;;;5052837;28;20219;-57
2023/06/24 05:21:48;;;;;;;0.10;0.10;;;18.10;68.40;;;;;;5052457;28;20202;-56
2023/06/24 05:24:19;;;;;;;0.05;0.05;;;18.00;69.10;;;;;;5067420;28;20264;-55
2023/06/24 05:26:52;;;;;;;0.10;0.10;;;18.00;68.30;;;;;;5072624;28;20218;-57
2023/06/24 05:29:23;;;;;;;0.10;0.10;;;18.10;68.40;;;;;;5072470;28;20219;-56
2023/06/24 05:31:53;;;;;;;0.10;0.10;;;18.00;68.60;;;;;;5069827;28;20199;-56
2023/06/24 05:34:26;;;;;;;0.10;0.10;;;18.00;68.30;;;;;;5052559;28;20737;-56
2023/06/24 05:36:56;;;;;;;0.10;0.10;;;18.10;68.30;;;;;;5052531;28;20196;-54
2023/06/24 05:39:28;;;;;;;0.10;0.10;;;18.00;68.20;;;;;;5052560;28;20211;-56
2023/06/24 05:41:58;;;;;;;0.10;0.10;;;18.00;68.20;;;;;;5052633;28;20196;-57
2023/06/24 05:44:29;;;;;;;0.10;0.10;;;18.00;68.20;;;;;;5052406;28;20242;-57
2023/06/24 05:46:59;;;;;;;0.08;0.08;;;18.00;68.20;;;;;;5051619;28;20227;-56
2023/06/24 05:49:32;;;;;;;0.08;0.08;;;18.00;68.20;;;;;;5052563;28;20269;-56
2023/06/24 05:52:03;;;;;;;0.10;0.10;;;18.00;68.20;;;;;;5052296;28;20191;-57
2023/06/24 05:54:33;;;;;;;0.00;0.00;;;18.00;68.20;;;;;;5058468;28;20242;-55
2023/06/24 05:57:06;;;;;;;0.10;0.10;;;18.00;68.20;;;;;;5051677;28;20200;-55
2023/06/24 05:59:36;;;;;;;0.00;0.00;;;18.00;68.20;;;;;;5051562;28;20226;-56
2023/06/24 06:02:07;;;;;;;0.10;0.10;;;18.00;68.20;;;;;;5051486;28;20261;-57
2023/06/24 06:04:40;;;;;;;0.20;0.20;;;18.00;68.20;;;;;;5051962;28;20231;-56
2023/06/24 06:07:11;;;;;;;0.10;0.10;;;18.00;68.10;;;;;;5052035;28;20227;-56
2023/06/24 06:09:42;;;;;;;0.00;0.00;;;18.00;68.10;;;;;;5052032;28;20215;-57
2023/06/24 06:12:13;;;;;;;0.10;0.10;;;18.00;68.10;;;;;;5051678;28;20206;-57
2023/06/24 06:14:43;;;;;;;0.00;0.00;;;17.90;68.00;;;;;;5049735;28;20261;-57
2023/06/24 06:17:14;;;;;;;0.10;0.10;;;18.00;68.00;;;;;;5038317;28;20245;-55
2023/06/24 06:19:46;;;;;;;0.10;0.10;;;18.00;68.00;;;;;;5051629;28;20255;-55
2023/06/24 06:22:17;;;;;;;0.10;0.10;;;18.00;68.00;;;;;;5051515;28;20201;-57
2023/06/24 06:24:48;;;;;;;0.00;0.00;;;18.00;68.00;;;;;;5070202;28;20553;-56
2023/06/24 06:27:18;;;;;;;0.10;0.10;;;18.00;68.00;;;;;;5055867;28;20306;-56
2023/06/24 06:29:49;;;;;;;0.08;0.08;;;18.00;68.00;;;;;;5050788;28;20206;-56
2023/06/24 06:32:19;;;;;;;0.10;0.10;;;18.00;68.00;;;;;;5051300;28;20237;-56
2023/06/24 06:34:52;;;;;;;0.10;0.10;;;18.00;68.10;;;;;;5051193;28;20241;-56
2023/06/24 06:37:22;;;;;;;0.10;0.10;;;18.00;68.10;;;;;;5051162;28;20238;-56
2023/06/24 06:39:53;;;;;;;0.10;0.10;;;17.90;68.00;;;;;;5050630;28;20293;-56
2023/06/24 06:42:23;;;;;;;0.00;0.00;;;17.90;67.90;;;;;;5051437;28;20726;-56
2023/06/24 06:44:54;;;;;;;0.10;0.10;;;17.90;68.00;;;;;;5050818;28;20227;-55
2023/06/24 06:47:27;;;;;;;0.10;0.10;;;17.90;67.90;;;;;;5051415;28;20266;-73
2023/06/24 06:50:00;;;;;;;0.00;0.00;;;17.90;67.90;;;;;;5051504;28;20206;-57
2023/06/24 06:52:30;;;;;;;0.08;0.08;;;18.00;68.00;;;;;;5050622;28;20227;-54
2023/06/24 06:55:01;;;;;;;0.00;0.00;;;18.00;68.00;;;;;;5031118;28;20635;-56
2023/06/24 06:57:32;;;;;;;0.00;0.00;;;17.90;67.90;;;;;;5049806;28;20677;-55
2023/06/24 07:00:03;;;;;;;0.05;0.05;;;17.90;67.90;;;;;;5050583;28;20531;-56
2023/06/24 07:02:33;;;;;;;0.10;0.10;;;18.00;67.90;;;;;;5051500;28;20666;-53
2023/06/24 07:05:06;;;;;;;0.00;0.00;;;18.00;67.90;;;;;;5051492;28;20276;-55
2023/06/24 07:07:37;;;;;;;0.00;0.00;;;17.90;67.90;;;;;;5050670;28;20713;-54
2023/06/24 07:10:08;;;;;;;0.10;0.10;;;18.00;67.90;;;;;;5050905;28;20202;-56
2023/06/24 07:12:38;;;;;;;0.10;0.10;;;18.00;67.90;;;;;;5051115;28;20238;-55
2023/06/24 07:15:10;;;;;;;0.10;0.10;;;17.90;67.90;;;;;;5050721;28;20195;-56
2023/06/24 07:17:41;;;;;;;0.10;0.10;;;17.90;67.90;;;;;;5050955;28;20261;-56
2023/06/24 07:20:14;;;;;;;0.10;0.10;;;18.00;68.00;;;;;;5051085;28;20221;-56
2023/06/24 07:22:45;;;;;;;0.00;0.00;;;17.90;67.90;;;;;;5052547;28;20286;-54
2023/06/24 07:25:16;;;;;;;0.10;0.10;;;17.90;67.90;;;;;;5071272;28;20277;-54
2023/06/24 07:27:46;;;;;;;0.10;0.10;;;17.90;67.90;;;;;;5071117;28;20230;-53
2023/06/24 07:30:17;;;;;;;0.10;0.10;;;17.90;67.90;;;;;;5070772;28;20655;-52
2023/06/24 07:32:48;;;;;;;0.10;0.10;;;17.90;67.90;;;;;;5070524;28;20206;-54
2023/06/24 07:35:20;;;;;;;0.10;0.10;;;17.90;67.80;;;;;;5050517;28;20234;-51
2023/06/24 07:37:51;;;;;;;0.10;0.10;;;17.90;67.90;;;;;;5050947;28;20216;-52
2023/06/24 07:40:22;;;;;;;0.10;0.10;;;17.90;67.80;;;;;;5050999;28;20223;-52
2023/06/24 07:42:52;;;;;;;0.10;0.10;;;17.90;67.80;;;;;;5050685;28;20200;-56
2023/06/24 07:45:23;;;;;;;0.00;0.00;;;17.90;67.80;;;;;;5050550;28;20278;-55
2023/06/24 07:47:54;;;;;;;0.08;0.08;;;17.90;67.80;;;;;;5050462;28;20219;-54
2023/06/24 07:50:26;;;;;;;0.00;0.00;;;17.90;67.80;;;;;;5051504;28;20574;-56
2023/06/24 07:52:57;;;;;;;0.10;0.10;;;17.90;67.80;;;;;;5058026;28;20235;-56
2023/06/24 07:55:27;;;;;;;0.10;0.10;;;17.90;67.80;;;;;;5074260;28;20194;-55
2023/06/24 07:57:58;;;;;;;0.10;0.10;;;17.90;67.80;;;;;;5074200;28;20219;-56
2023/06/24 08:00:29;;;;;;;0.00;0.00;;;17.90;67.90;;;;;;5053564;28;20202;-55
2023/06/24 08:03:00;;;;;;;0.10;0.10;;;17.90;68.60;;;;;;5054206;28;20227;-52
2023/06/24 08:05:32;;;;;;;0.08;0.08;;;17.90;67.80;;;;;;5054427;28;20202;-56
2023/06/24 08:08:03;;;;;;;0.10;0.10;;;17.90;67.80;;;;;;5053952;28;20263;-56
2023/06/24 08:10:33;;;;;;;0.10;0.10;;;17.90;67.80;;;;;;5053971;28;20246;-56
2023/06/24 08:13:04;;;;;;;0.00;0.00;;;17.90;67.80;;;;;;5054147;28;20195;-55
2023/06/24 08:15:35;;;;;;;0.05;0.05;;;17.90;67.80;;;;;;5053705;28;20631;-55
2023/06/24 08:18:05;;;;;;;0.10;0.10;;;17.80;67.70;;;;;;5053943;28;20299;-56
2023/06/24 08:20:38;;;;;;;0.00;0.00;;;17.80;67.70;;;;;;5054170;28;20729;-54
2023/06/24 08:23:09;;;;;;;0.10;0.10;;;17.90;67.80;;;;;;5059135;28;20195;-56
2023/06/24 08:25:40;;;;;;;0.10;0.10;;;17.80;67.60;;;;;;5074164;28;20573;-54
2023/06/24 08:28:10;;;;;;;0.00;0.00;;;17.90;67.70;;;;;;5064457;28;20637;-54
2023/06/24 08:30:41;;;;;;;0.00;0.00;;;17.90;67.80;;;;;;5053713;28;20206;-55
2023/06/24 08:33:11;;;;;;;0.03;0.03;;;17.80;67.70;;;;;;5053840;28;20282;-51
2023/06/24 08:35:44;;;;;;;0.20;0.20;;;17.80;67.70;;;;;;5053745;28;20199;-54
2023/06/24 08:38:14;;;;;;;0.10;0.10;;;17.80;67.60;;;;;;5053808;28;20243;-56
2023/06/24 08:40:46;;;;;;;0.10;0.10;;;17.80;67.80;;;;;;5053802;28;20231;-53
2023/06/24 08:43:16;;;;;;;0.10;0.10;;;17.90;67.90;;;;;;5052747;28;20666;-57
2023/06/24 08:45:48;;;;;;;0.10;0.10;;;17.80;67.80;;;;;;5053261;28;20295;-56
2023/06/24 08:48:20;;;;;;;0.10;0.10;;;17.80;67.70;;;;;;5052987;28;20310;-55
2023/06/24 08:50:58;;;;;;;0.10;0.10;;;17.80;67.70;;;;;;5043962;28;20283;-56
2023/06/24 08:53:30;;;;;;;0.10;0.10;;;17.80;67.70;;;;;;5056795;28;20203;-55
2023/06/24 08:56:01;;;;;;;0.10;0.10;;;17.80;67.70;;;;;;5073285;28;20301;-54
2023/06/24 08:58:32;;;;;;;0.10;0.10;;;17.80;67.60;;;;;;5072222;28;20222;-54
2023/06/24 09:01:04;;;;;;;0.03;0.03;;;17.80;67.70;;;;;;5073438;28;20201;-53
2023/06/24 09:03:35;;;;;;;0.10;0.10;;;17.80;67.60;;;;;;5072431;28;20233;-51
2023/06/24 09:06:07;;;;;;;0.00;0.00;;;17.90;67.70;;;;;;5073279;28;20293;-54
2023/06/24 09:08:39;;;;;;;0.10;0.10;;;17.80;67.60;;;;;;5072896;28;20254;-56
2023/06/24 09:11:12;;;;;;;0.10;0.10;;;17.80;67.60;;;;;;5072910;28;20244;-56
2023/06/24 09:13:43;;;;;;;0.10;0.10;;;17.80;67.60;;;;;;5072610;28;20222;-55
2023/06/24 09:16:16;;;;;;;0.10;0.10;;;17.80;67.70;;;;;;5073205;28;20585;-55
2023/06/24 09:18:51;;;;;;;0.10;0.10;;;17.80;67.70;;;;;;5072624;28;20219;-55
2023/06/24 09:21:30;;;;;;;0.08;0.08;;;17.80;67.70;;;;;;5072589;28;20194;-55
2023/06/24 09:24:01;;;;;;;0.10;0.10;;;17.80;67.80;;;;;;5072612;28;20253;-56
2023/06/24 09:26:32;;;;;;;0.10;0.10;;;17.80;67.80;;;;;;5072785;28;20199;-50
2023/06/24 09:29:02;;;;;;;0.10;0.10;;;17.80;67.80;;;;;;5071823;28;20227;-53
2023/06/24 09:31:33;;;;;;;0.10;0.10;;;17.80;67.80;;;;;;5051756;28;20196;-54
2023/06/24 09:34:04;;;;;;;0.10;0.10;;;17.80;67.90;;;;;;5050163;28;20261;-52
2023/06/24 09:36:36;;;;;;;0.10;0.10;;;17.80;68.00;;;;;;5052062;28;20203;-53
2023/06/24 09:39:10;;;;;;;0.10;0.10;;;17.80;68.00;;;;;;5051403;28;20215;-55
2023/06/24 09:41:43;;;;;;;0.10;0.10;;;17.80;68.00;;;;;;5038323;28;20188;-54
2023/06/24 09:44:15;;;;;;;0.10;0.10;;;17.80;67.90;;;;;;5051583;28;20491;-55
2023/06/24 09:46:46;;;;;;;0.10;0.10;;;17.80;67.90;;;;;;5051690;28;20219;-51
2023/06/24 09:49:17;;;;;;;0.00;0.00;;;17.80;67.90;;;;;;5052393;28;20315;-55
2023/06/24 09:51:51;;;;;;;0.10;0.10;;;17.80;67.80;;;;;;5052049;28;20196;-55
2023/06/24 09:54:22;;;;;;;0.10;0.10;;;17.80;67.90;;;;;;5067069;28;20244;-53
2023/06/24 09:56:54;;;;;;;0.10;0.10;;;17.80;67.80;;;;;;5059064;28;20245;-54
2023/06/24 09:59:26;;;;;;;0.10;0.10;;;17.80;67.90;;;;;;5065979;28;20230;-56
2023/06/24 10:01:57;;;;;;;0.00;0.00;;;17.80;67.90;;;;;;5063287;28;20233;-56
2023/06/24 10:04:30;;;;;;;0.05;0.05;;;17.80;67.90;;;;;;5070453;28;20256;-54
2023/06/24 10:07:03;;;;;;;0.10;0.10;;;17.80;67.90;;;;;;5064942;28;20249;-54
2023/06/24 10:09:34;;;;;;;0.10;0.10;;;17.80;67.90;;;;;;5069867;28;20235;-56
2023/06/24 10:12:04;;;;;;;0.00;0.00;;;17.80;67.80;;;;;;5065053;28;20199;-55
2023/06/24 10:14:35;;;;;;;0.10;0.10;;;17.80;67.80;;;;;;5064593;28;20240;-56
2023/06/24 10:17:07;;;;;;;0.05;0.05;;;17.80;67.80;;;;;;5065135;28;20195;-56
2023/06/24 10:19:42;;;;;;;0.10;0.10;;;17.80;67.80;;;;;;5070369;28;20751;-55
2023/06/24 10:22:15;;;;;;;0.10;0.10;;;17.80;67.80;;;;;;5064500;28;20191;-56
2023/06/24 10:24:48;;;;;;;0.10;0.10;;;17.80;67.80;;;;;;5069532;28;20199;-55
2023/06/24 10:27:21;;;;;;;0.10;0.10;;;17.80;67.80;;;;;;5063659;28;20194;-52
2023/06/24 10:29:53;;;;;;;0.03;0.03;;;17.80;67.80;;;;;;5069041;28;20215;-56
2023/06/24 10:32:25;;;;;;;0.10;0.10;;;17.80;67.80;;;;;;5066159;28;20256;-55
2023/06/24 10:34:58;;;;;;;0.00;0.00;;;17.80;67.80;;;;;;5069290;28;20202;-53
2023/06/24 10:37:34;;;;;;;0.10;0.10;;;17.80;67.80;;;;;;5057857;28;20198;-55
2023/06/24 10:40:05;;;;;;;0.10;0.10;;;17.80;67.90;;;;;;5068376;28;20243;-53
2023/06/24 10:42:41;;;;;;;0.10;0.10;;;17.80;67.90;;;;;;5066279;28;20194;-54
2023/06/24 10:45:22;;;;;;;0.03;0.03;;;17.80;67.90;;;;;;5069018;28;20280;-55
2023/06/24 10:47:56;;;;;;;0.10;0.10;;;17.80;67.90;;;;;;5062605;28;20225;-54
2023/06/24 10:50:27;;;;;;;0.10;0.10;;;17.80;68.00;;;;;;5069517;28;20594;-54
2023/06/24 10:53:01;;;;;;;0.00;0.00;;;17.80;68.00;;;;;;5066597;28;20205;-53
2023/06/24 10:55:32;;;;;;;0.05;0.05;;;17.80;68.00;;;;;;5069733;28;20661;-53
2023/06/24 10:58:12;;;;;;;0.00;0.00;;;17.80;68.00;;;;;;5066946;28;20335;-55
2023/06/24 11:00:43;;;;;;;0.10;0.10;;;17.80;68.00;;;;;;5069720;28;20203;-55
2023/06/24 11:03:15;;;;;;;0.10;0.10;;;17.80;68.00;;;;;;5056928;28;20252;-54
2023/06/24 11:05:46;;;;;;;0.05;0.05;;;17.80;67.90;;;;;;5068674;28;20673;-51
2023/06/24 11:08:18;;;;;;;0.10;0.10;;;17.80;67.90;;;;;;5067739;28;20737;-55
2023/06/24 11:10:50;;;;;;;0.10;0.10;;;17.80;67.90;;;;;;5068722;28;20202;-55
2023/06/24 11:13:24;;;;;;;0.10;0.10;;;17.90;68.00;;;;;;5068176;28;20198;-55
2023/06/24 11:15:55;;;;;;;0.10;0.10;;;17.80;67.90;;;;;;5068337;28;20207;-54
2023/06/24 11:18:25;;;;;;;0.10;0.10;;;17.80;67.90;;;;;;5068381;28;20631;-52
2023/06/24 11:20:58;;;;;;;0.00;0.00;;;17.80;67.90;;;;;;5069385;28;20248;-56
2023/06/24 11:23:32;;;;;;;0.10;0.10;;;17.90;68.00;;;;;;5068378;28;20199;-53
2023/06/24 11:26:07;;;;;;;0.10;0.10;;;17.80;68.00;;;;;;5069526;28;20221;-53
2023/06/24 11:28:39;;;;;;;0.10;0.10;;;17.80;67.90;;;;;;5072776;28;20226;-53
2023/06/24 11:31:14;;;;;;;0.05;0.05;;;17.80;67.90;;;;;;5057356;28;20203;-54
2023/06/24 11:33:45;;;;;;;0.00;0.00;;;17.90;68.00;;;;;;5066733;28;20551;-54
2023/06/24 11:36:18;;;;;;;0.00;0.00;;;17.80;67.90;;;;;;5072871;28;20209;-53
2023/06/24 11:38:52;;;;;;;0.10;0.10;;;17.90;67.90;;;;;;5064610;28;20264;-52
2023/06/24 11:41:25;;;;;;;0.00;0.00;;;17.90;67.90;;;;;;5072391;28;20251;-56
2023/06/24 11:43:56;;;;;;;0.10;0.10;;;17.90;67.90;;;;;;5064437;28;20202;-54
2023/06/24 11:46:28;;;;;;;0.10;0.10;;;17.80;67.80;;;;;;5071164;28;20256;-55
2023/06/24 11:49:07;;;;;;;0.10;0.10;;;17.80;67.80;;;;;;5062595;28;20280;-52
2023/06/24 11:51:38;;;;;;;0.10;0.10;;;17.90;67.90;;;;;;5073864;28;20607;-54
2023/06/24 11:54:10;;;;;;;0.00;0.00;;;17.80;67.80;;;;;;5066141;28;20244;-50
2023/06/24 11:56:42;;;;;;;0.00;0.00;;;17.80;67.90;;;;;;5072294;28;20206;-55
2023/06/24 11:59:20;;;;;;;0.10;0.10;;;17.80;67.90;;;;;;5063855;28;20230;-53
2023/06/24 12:01:56;;;;;;;0.00;0.00;;;17.80;67.90;;;;;;5072028;28;20195;-53
2023/06/24 12:04:32;;;;;;;0.10;0.10;;;17.80;67.90;;;;;;5067268;28;20260;-53
2023/06/24 12:07:03;;;;;;;0.10;0.10;;;17.80;67.90;;;;;;5071145;28;20283;-56
2023/06/24 12:09:35;;;;;;;0.00;0.00;;;17.80;68.10;;;;;;5067466;28;20600;-55
2023/06/24 12:12:06;;;;;;;0.00;0.00;;;17.80;67.90;;;;;;5070586;28;20203;-51
2023/06/24 12:14:37;;;;;;;0.00;0.00;;;17.80;67.80;;;;;;5068124;28;20717;-52
2023/06/24 12:17:08;;;;;;;0.10;0.10;;;17.80;67.80;;;;;;5070729;28;20226;-54
2023/06/24 12:19:38;;;;;;;0.10;0.10;;;17.80;67.80;;;;;;5068825;28;20277;-49
2023/06/24 12:22:09;;;;;;;0.10;0.10;;;17.80;67.70;;;;;;5071343;28;20731;-52
2023/06/24 12:24:41;;;;;;;0.10;0.10;;;17.80;67.80;;;;;;5070093;28;20291;-55
2023/06/24 12:27:12;;;;;;;0.08;0.08;;;17.80;67.80;;;;;;5069492;28;20248;-53
2023/06/24 12:29:42;;;;;;;0.00;0.00;;;17.80;67.80;;;;;;5068408;28;20280;-53
2023/06/24 12:32:13;;;;;;;0.10;0.10;;;17.90;67.80;;;;;;5066817;28;20203;-52
2023/06/24 12:34:43;;;;;;;0.10;0.10;;;17.90;67.80;;;;;;5068530;28;20207;-52
2023/06/24 12:37:14;;;;;;;0.10;0.10;;;17.90;67.90;;;;;;5056555;28;20203;-53
2023/06/24 12:39:47;;;;;;;0.10;0.10;;;17.80;67.80;;;;;;5054144;28;20269;-56
2023/06/24 12:42:18;;;;;;;0.10;0.10;;;17.90;67.90;;;;;;5053636;28;20253;-53
2023/06/24 12:44:48;;;;;;;0.10;0.10;;;17.80;67.70;;;;;;5053681;28;20203;-54
2023/06/24 12:47:19;;;;;;;0.03;0.03;;;17.80;67.80;;;;;;5052778;28;20199;-56
2023/06/24 12:49:49;;;;;;;0.15;0.15;;;17.80;67.80;;;;;;5054032;28;20273;-50
2023/06/24 12:52:20;;;;;;;0.10;0.10;;;17.80;67.80;;;;;;5053480;28;20199;-57
2023/06/24 12:54:52;;;;;;;0.10;0.10;;;17.80;67.70;;;;;;5072596;28;20433;-57
2023/06/24 12:57:23;;;;;;;0.10;0.10;;;17.80;67.70;;;;;;5073473;28;20616;-51
2023/06/24 12:59:53;;;;;;;0.10;0.10;;;17.80;67.70;;;;;;5073397;28;20219;-55
2023/06/24 13:02:24;;;;;;;0.10;0.10;;;17.80;67.60;;;;;;5072972;28;20198;-53
2023/06/24 13:04:54;;;;;;;0.10;0.10;;;17.80;68.40;;;;;;5073286;28;20271;-54
2023/06/24 13:07:25;;;;;;;0.00;0.00;;;17.80;67.70;;;;;;5073452;28;20199;-53
2023/06/24 13:09:59;;;;;;;0.10;0.10;;;17.80;67.70;;;;;;5073135;28;20298;-53
2023/06/24 13:12:29;;;;;;;0.10;0.10;;;17.80;67.70;;;;;;5072560;28;20256;-54